Wetterdaten: Woche 04.12.06 - 10.12.06 (KW49)
Datum Zeit Temperatur Luftfeuchte Luftdruck Niederschlag Wind Richtung Sonnenschein UV-Strahlung Solar Taupunkt Windchill Windben
04.12.2006 00:00 13.1 C 64 % 1011.5 hPa 0.0 l/m 15.5 km/h (3 Bft) W-SW 0.00 h 0.0 UV-I 0 W/m 6.4 C 13.1 C 25.0 km/h (4 Bft)
04.12.2006 01:00 12.9 C 65 % 1011.3 hPa 0.0 l/m 15.4 km/h (3 Bft) W-SW 0.00 h 0.0 UV-I 0 W/m 6.6 C 12.9 C 24.4 km/h (4 Bft)
04.12.2006 02:00 10.6 C 87 % 1011.9 hPa 1.0 l/m 5.8 km/h (2 Bft) W-NW 0.00 h 0.0 UV-I 0 W/m 8.6 C 10.6 C 9.7 km/h (2 Bft)
04.12.2006 03:00 9.4 C 91 % 1012.2 hPa 2.0 l/m 15.9 km/h (3 Bft) W-NW 0.00 h 0.0 UV-I 0 W/m 7.9 C 7.2 C 24.4 km/h (4 Bft)
04.12.2006 04:00 8.3 C 91 % 1012.5 hPa 0.0 l/m 13.1 km/h (3 Bft) W 0.00 h 0.0 UV-I 0 W/m 6.9 C 6.1 C 19.9 km/h (4 Bft)
04.12.2006 05:00 7.9 C 89 % 1012.5 hPa 0.6 l/m 17.4 km/h (3 Bft) W 0.00 h 0.0 UV-I 0 W/m 6.1 C 5.0 C 25.7 km/h (4 Bft)
04.12.2006 06:00 7.8 C 86 % 1012.8 hPa 0.0 l/m 8.1 km/h (2 Bft) W 0.00 h 0.0 UV-I 0 W/m 5.5 C 6.5 C 13.3 km/h (3 Bft)
04.12.2006 07:00 7.7 C 84 % 1013.3 hPa 0.2 l/m 2.5 km/h (1 Bft) W-SW 0.00 h 0.0 UV-I 0 W/m 5.1 C 7.5 C 5.2 km/h (1 Bft)
04.12.2006 08:00 7.9 C 82 % 1013.4 hPa 0.0 l/m 4.6 km/h (1 Bft) W-SW 0.00 h 0.0 UV-I 9 W/m 5.0 C 7.4 C 8.8 km/h (2 Bft)
04.12.2006 09:00 7.8 C 87 % 1013.5 hPa 0.0 l/m 5.5 km/h (1 Bft) S 0.00 h 0.5 UV-I 45 W/m 5.9 C 7.2 C 11.7 km/h (2 Bft)
04.12.2006 10:00 8.7 C 85 % 1013.2 hPa 0.0 l/m 6.0 km/h (2 Bft) S 0.13 h 0.6 UV-I 111 W/m 6.4 C 8.0 C 12.2 km/h (2 Bft)
04.12.2006 11:00 10.1 C 80 % 1012.0 hPa 0.0 l/m 6.6 km/h (2 Bft) S 0.65 h 0.9 UV-I 209 W/m 6.8 C 9.7 C 13.3 km/h (3 Bft)
04.12.2006 12:00 10.5 C 79 % 1010.7 hPa 0.2 l/m 9.3 km/h (2 Bft) S 0.00 h 0.6 UV-I 82 W/m 7.0 C 10.5 C 18.4 km/h (3 Bft)
04.12.2006 13:00 10.6 C 80 % 1009.5 hPa 0.2 l/m 10.0 km/h (2 Bft) W-SW 0.00 h 0.5 UV-I 63 W/m 7.4 C 10.3 C 19.4 km/h (3 Bft)
04.12.2006 14:00 10.9 C 82 % 1009.2 hPa 1.0 l/m 14.9 km/h (3 Bft) W-SW 0.00 h 0.0 UV-I 34 W/m 8.0 C 10.9 C 25.3 km/h (4 Bft)
04.12.2006 15:00 11.5 C 80 % 1009.8 hPa 0.0 l/m 12.7 km/h (3 Bft) W-SW 0.00 h 0.0 UV-I 31 W/m 8.3 C 11.5 C 20.8 km/h (4 Bft)
04.12.2006 16:00 11.0 C 88 % 1010.6 hPa 0.8 l/m 5.9 km/h (2 Bft) W-SW 0.00 h 0.0 UV-I 7 W/m 9.0 C 11.0 C 11.1 km/h (2 Bft)
04.12.2006 17:00 11.1 C 86 % 1011.6 hPa 0.2 l/m 6.2 km/h (2 Bft) SW 0.00 h 0.0 UV-I 0 W/m 8.7 C 11.1 C 11.8 km/h (2 Bft)
04.12.2006 18:00 12.1 C 81 % 1012.5 hPa 0.0 l/m 7.5 km/h (2 Bft) W-SW 0.00 h 0.0 UV-I 0 W/m 8.8 C 12.1 C 13.0 km/h (3 Bft)
04.12.2006 19:00 11.6 C 87 % 1013.6 hPa 1.2 l/m 11.1 km/h (2 Bft) W 0.00 h 0.0 UV-I 0 W/m 9.6 C 11.6 C 17.9 km/h (3 Bft)
04.12.2006 20:00 10.7 C 94 % 1014.6 hPa 4.4 l/m 3.7 km/h (1 Bft) W 0.00 h 0.0 UV-I 0 W/m 9.9 C 10.7 C 6.3 km/h (2 Bft)
04.12.2006 21:00 10.5 C 97 % 1015.0 hPa 1.4 l/m 1.1 km/h (0 Bft) SW 0.00 h 0.0 UV-I 0 W/m 10.0 C 10.5 C 2.9 km/h (1 Bft)
04.12.2006 22:00 10.6 C 97 % 1015.3 hPa 1.4 l/m 4.8 km/h (1 Bft) S-SO 0.00 h 0.0 UV-I 0 W/m 10.1 C 10.6 C 8.8 km/h (2 Bft)
04.12.2006 23:00 10.5 C 95 % 1015.1 hPa 0.4 l/m 2.1 km/h (1 Bft) S-SO 0.00 h 0.0 UV-I 0 W/m 9.8 C 10.5 C 5.0 km/h (1 Bft)
05.12.2006 00:00 10.4 C 96 % 1014.9 hPa 1.6 l/m 0.2 km/h (0 Bft) W-SW 0.00 h 0.0 UV-I 0 W/m 9.7 C 10.4 C 0.9 km/h (0 Bft)
05.12.2006 01:00 10.1 C 97 % 1014.6 hPa 0.8 l/m 1.2 km/h (1 Bft) N-NW 0.00 h 0.0 UV-I 0 W/m 9.6 C 10.1 C 2.6 km/h (1 Bft)
05.12.2006 02:00 10.1 C 98 % 1014.3 hPa 0.2 l/m 1.1 km/h (1 Bft) SO 0.00 h 0.0 UV-I 0 W/m 9.8 C 10.1 C 2.5 km/h (1 Bft)
05.12.2006 03:00 10.5 C 98 % 1014.1 hPa 0.0 l/m 1.7 km/h (1 Bft) SW 0.00 h 0.0 UV-I 0 W/m 10.2 C 10.5 C 4.1 km/h (1 Bft)
05.12.2006 04:00 10.6 C 97 % 1014.1 hPa 0.0 l/m 2.5 km/h (1 Bft) O-SO 0.00 h 0.0 UV-I 0 W/m 10.1 C 10.6 C 4.1 km/h (1 Bft)
05.12.2006 05:00 9.8 C 96 % 1014.2 hPa 0.0 l/m 2.1 km/h (1 Bft) O-SO 0.00 h 0.0 UV-I 0 W/m 9.2 C 9.7 C 4.1 km/h (1 Bft)
05.12.2006 06:00 10.5 C 94 % 1014.4 hPa 0.0 l/m 3.3 km/h (1 Bft) W-NW 0.00 h 0.0 UV-I 0 W/m 9.7 C 10.5 C 6.1 km/h (2 Bft)
05.12.2006 07:00 11.1 C 89 % 1014.5 hPa 0.0 l/m 5.1 km/h (1 Bft) S-SO 0.00 h 0.0 UV-I 0 W/m 9.5 C 11.1 C 9.1 km/h (2 Bft)
05.12.2006 08:00 11.2 C 89 % 1014.6 hPa 0.0 l/m 2.2 km/h (1 Bft) SW 0.00 h 0.0 UV-I 9 W/m 9.4 C 11.2 C 4.4 km/h (1 Bft)
05.12.2006 09:00 11.0 C 91 % 1014.8 hPa 0.2 l/m 1.3 km/h (1 Bft) SO 0.00 h 0.0 UV-I 16 W/m 9.6 C 11.0 C 2.6 km/h (1 Bft)
05.12.2006 10:00 11.0 C 93 % 1014.7 hPa 0.2 l/m 1.0 km/h (0 Bft) SO 0.00 h 0.5 UV-I 51 W/m 9.9 C 11.0 C 2.4 km/h (1 Bft)
05.12.2006 11:00 11.2 C 95 % 1014.1 hPa 0.2 l/m 0.6 km/h (0 Bft) N-NW 0.03 h 0.6 UV-I 79 W/m 10.4 C 11.2 C 1.5 km/h (1 Bft)
05.12.2006 12:00 12.2 C 94 % 1012.8 hPa 0.0 l/m 0.2 km/h (0 Bft) N-NW 0.38 h 0.9 UV-I 182 W/m 11.2 C 12.2 C 0.9 km/h (0 Bft)
05.12.2006 13:00 13.4 C 89 % 1011.5 hPa 0.0 l/m 0.6 km/h (0 Bft) W-NW 0.55 h 0.9 UV-I 190 W/m 11.6 C 13.4 C 1.5 km/h (1 Bft)
05.12.2006 14:00 14.1 C 81 % 1010.5 hPa 0.0 l/m 1.8 km/h (1 Bft) W 0.55 h 0.7 UV-I 129 W/m 10.8 C 14.1 C 3.7 km/h (1 Bft)
05.12.2006 15:00 14.6 C 73 % 1009.8 hPa 0.0 l/m 3.6 km/h (1 Bft) S-SO 0.35 h 0.5 UV-I 65 W/m 9.8 C 14.6 C 7.1 km/h (2 Bft)
05.12.2006 16:00 13.9 C 72 % 1009.3 hPa 0.0 l/m 6.9 km/h (2 Bft) S-SO 0.00 h 0.0 UV-I 12 W/m 9.1 C 13.9 C 13.1 km/h (3 Bft)
05.12.2006 17:00 13.6 C 73 % 1008.8 hPa 0.0 l/m 3.2 km/h (1 Bft) S-SO 0.00 h 0.0 UV-I 0 W/m 8.9 C 13.6 C 6.3 km/h (2 Bft)
05.12.2006 18:00 12.5 C 78 % 1008.3 hPa 0.0 l/m 3.7 km/h (1 Bft) SO 0.00 h 0.0 UV-I 0 W/m 8.9 C 12.5 C 6.4 km/h (2 Bft)
05.12.2006 19:00 11.4 C 83 % 1008.1 hPa 0.0 l/m 2.2 km/h (1 Bft) O-SO 0.00 h 0.0 UV-I 0 W/m 8.6 C 11.4 C 3.5 km/h (1 Bft)
05.12.2006 20:00 10.3 C 89 % 1008.1 hPa 0.0 l/m 0.6 km/h (0 Bft) O 0.00 h 0.0 UV-I 0 W/m 8.6 C 10.3 C 1.5 km/h (1 Bft)
05.12.2006 21:00 9.8 C 94 % 1007.7 hPa 0.0 l/m 0.4 km/h (0 Bft) O 0.00 h 0.0 UV-I 0 W/m 8.8 C 9.8 C 1.5 km/h (1 Bft)
05.12.2006 22:00 9.6 C 95 % 1007.8 hPa 0.0 l/m 1.0 km/h (0 Bft) O-SO 0.00 h 0.0 UV-I 0 W/m 8.8 C 9.5 C 2.1 km/h (1 Bft)
05.12.2006 23:00 9.3 C 95 % 1007.5 hPa 0.0 l/m 1.8 km/h (1 Bft) O-SO 0.00 h 0.0 UV-I 0 W/m 8.6 C 9.2 C 3.0 km/h (1 Bft)
06.12.2006 00:00 9.2 C 96 % 1006.8 hPa 0.0 l/m 0.6 km/h (0 Bft) O-NO 0.00 h 0.0 UV-I 0 W/m 8.6 C 9.2 C 1.7 km/h (1 Bft)
06.12.2006 01:00 9.1 C 96 % 1006.4 hPa 0.0 l/m 1.3 km/h (1 Bft) O-SO 0.00 h 0.0 UV-I 0 W/m 8.6 C 9.1 C 2.6 km/h (1 Bft)
06.12.2006 02:00 9.0 C 97 % 1005.9 hPa 0.0 l/m 2.4 km/h (1 Bft) O-SO 0.00 h 0.0 UV-I 0 W/m 8.6 C 8.9 C 4.2 km/h (1 Bft)
06.12.2006 03:00 8.7 C 97 % 1005.5 hPa 0.2 l/m 0.2 km/h (0 Bft) O-NO 0.00 h 0.0 UV-I 0 W/m 8.3 C 8.7 C 0.8 km/h (0 Bft)
06.12.2006 04:00 8.6 C 97 % 1005.4 hPa 0.2 l/m 1.5 km/h (1 Bft) N-NO 0.00 h 0.0 UV-I 0 W/m 8.2 C 8.5 C 3.0 km/h (1 Bft)
06.12.2006 05:00 8.5 C 98 % 1005.4 hPa 0.4 l/m 2.6 km/h (1 Bft) O-SO 0.00 h 0.0 UV-I 0 W/m 8.2 C 8.3 C 4.7 km/h (1 Bft)
06.12.2006 06:00 8.7 C 99 % 1005.3 hPa 0.4 l/m 0.7 km/h (0 Bft) O 0.00 h 0.0 UV-I 0 W/m 8.5 C 8.7 C 1.7 km/h (1 Bft)
06.12.2006 07:00 8.9 C 99 % 1005.9 hPa 0.4 l/m 1.2 km/h (1 Bft) O-SO 0.00 h 0.0 UV-I 0 W/m 8.7 C 8.8 C 2.3 km/h (1 Bft)
06.12.2006 08:00 9.0 C 98 % 1007.0 hPa 0.4 l/m 11.3 km/h (2 Bft) W 0.00 h 0.0 UV-I 9 W/m 8.7 C 7.4 C 18.0 km/h (3 Bft)
06.12.2006 09:00 8.2 C 94 % 1008.7 hPa 1.6 l/m 16.9 km/h (3 Bft) W 0.00 h 0.0 UV-I 15 W/m 7.3 C 5.5 C 26.5 km/h (4 Bft)
06.12.2006 10:00 7.2 C 93 % 1010.8 hPa 3.2 l/m 13.6 km/h (3 Bft) W 0.00 h 0.0 UV-I 15 W/m 6.2 C 4.8 C 21.1 km/h (4 Bft)
06.12.2006 11:00 6.8 C 95 % 1011.8 hPa 2.2 l/m 5.3 km/h (1 Bft) W-SW 0.00 h 0.0 UV-I 18 W/m 6.0 C 6.1 C 9.3 km/h (2 Bft)
06.12.2006 12:00 6.7 C 96 % 1012.8 hPa 0.6 l/m 3.8 km/h (1 Bft) SW 0.00 h 0.0 UV-I 33 W/m 6.0 C 6.4 C 7.9 km/h (2 Bft)
06.12.2006 13:00 6.5 C 95 % 1013.3 hPa 0.4 l/m 4.2 km/h (1 Bft) S-SW 0.00 h 0.5 UV-I 45 W/m 5.8 C 6.0 C 8.8 km/h (2 Bft)
06.12.2006 14:00 6.4 C 95 % 1013.9 hPa 0.2 l/m 3.0 km/h (1 Bft) SW 0.00 h 0.0 UV-I 29 W/m 5.6 C 6.2 C 6.9 km/h (2 Bft)
06.12.2006 15:00 6.2 C 94 % 1014.4 hPa 0.0 l/m 3.0 km/h (1 Bft) S-SW 0.00 h 0.0 UV-I 26 W/m 5.3 C 5.9 C 7.3 km/h (2 Bft)
06.12.2006 16:00 6.0 C 93 % 1014.8 hPa 0.0 l/m 3.6 km/h (1 Bft) S 0.03 h 0.0 UV-I 9 W/m 5.1 C 5.8 C 7.8 km/h (2 Bft)
06.12.2006 17:00 5.9 C 94 % 1015.1 hPa 0.0 l/m 2.3 km/h (1 Bft) SW 0.00 h 0.0 UV-I 0 W/m 4.9 C 5.8 C 5.5 km/h (1 Bft)
06.12.2006 18:00 5.9 C 94 % 1015.5 hPa 0.0 l/m 1.0 km/h (0 Bft) SW 0.00 h 0.0 UV-I 0 W/m 5.0 C 5.9 C 3.1 km/h (1 Bft)
06.12.2006 19:00 5.8 C 94 % 1015.7 hPa 0.0 l/m 0.6 km/h (0 Bft) S-SW 0.00 h 0.0 UV-I 0 W/m 4.9 C 5.8 C 2.7 km/h (1 Bft)
06.12.2006 20:00 5.7 C 95 % 1016.3 hPa 0.0 l/m 0.7 km/h (0 Bft) S-SW 0.00 h 0.0 UV-I 0 W/m 4.9 C 5.7 C 2.8 km/h (1 Bft)
06.12.2006 21:00 5.9 C 95 % 1016.8 hPa 0.0 l/m 2.0 km/h (1 Bft) S-SW 0.00 h 0.0 UV-I 0 W/m 5.1 C 5.8 C 5.2 km/h (1 Bft)
06.12.2006 22:00 6.0 C 94 % 1017.3 hPa 0.0 l/m 2.3 km/h (1 Bft) S 0.00 h 0.0 UV-I 0 W/m 5.1 C 5.9 C 5.2 km/h (1 Bft)
06.12.2006 23:00 5.9 C 94 % 1017.5 hPa 0.0 l/m 1.8 km/h (1 Bft) S 0.00 h 0.0 UV-I 0 W/m 5.0 C 5.9 C 4.8 km/h (1 Bft)
07.12.2006 00:00 5.8 C 94 % 1017.7 hPa 0.0 l/m 1.0 km/h (0 Bft) S-SO 0.00 h 0.0 UV-I 0 W/m 4.9 C 5.8 C 3.7 km/h (1 Bft)
07.12.2006 01:00 5.7 C 94 % 1017.7 hPa 0.0 l/m 0.8 km/h (0 Bft) S-SW 0.00 h 0.0 UV-I 0 W/m 4.9 C 5.7 C 2.7 km/h (1 Bft)
07.12.2006 02:00 5.7 C 95 % 1017.8 hPa 0.0 l/m 1.4 km/h (1 Bft) S-SO 0.00 h 0.0 UV-I 0 W/m 5.0 C 5.7 C 3.4 km/h (1 Bft)
07.12.2006 03:00 5.1 C 95 % 1017.8 hPa 0.0 l/m 3.0 km/h (1 Bft) SO 0.00 h 0.0 UV-I 0 W/m 4.4 C 5.0 C 4.8 km/h (1 Bft)
07.12.2006 04:00 4.5 C 96 % 1017.3 hPa 0.0 l/m 2.7 km/h (1 Bft) O-SO 0.00 h 0.0 UV-I 0 W/m 3.9 C 4.3 C 4.3 km/h (1 Bft)
07.12.2006 05:00 4.5 C 97 % 1016.7 hPa 0.0 l/m 2.3 km/h (1 Bft) O-SO 0.00 h 0.0 UV-I 0 W/m 4.1 C 4.4 C 3.7 km/h (1 Bft)
07.12.2006 06:00 4.2 C 97 % 1016.4 hPa 0.0 l/m 0.8 km/h (0 Bft) NW 0.00 h 0.0 UV-I 0 W/m 3.8 C 4.2 C 2.4 km/h (1 Bft)
07.12.2006 07:00 4.1 C 98 % 1015.6 hPa 0.0 l/m 0.8 km/h (0 Bft) S 0.00 h 0.0 UV-I 0 W/m 3.8 C 4.1 C 1.9 km/h (1 Bft)
07.12.2006 08:00 4.3 C 99 % 1014.9 hPa 0.0 l/m 1.3 km/h (1 Bft) S-SO 0.00 h 0.0 UV-I 15 W/m 4.2 C 4.3 C 3.2 km/h (1 Bft)
07.12.2006 09:00 4.8 C 97 % 1014.1 hPa 0.0 l/m 1.4 km/h (1 Bft) S-SO 0.00 h 0.5 UV-I 58 W/m 4.4 C 4.8 C 3.2 km/h (1 Bft)
07.12.2006 10:00 5.2 C 90 % 1013.0 hPa 0.0 l/m 4.4 km/h (1 Bft) S-SO 0.02 h 0.5 UV-I 93 W/m 3.7 C 4.6 C 8.8 km/h (2 Bft)
07.12.2006 11:00 5.7 C 87 % 1012.2 hPa 0.0 l/m 1.8 km/h (1 Bft) W-SW 0.55 h 0.8 UV-I 196 W/m 3.8 C 5.7 C 4.3 km/h (1 Bft)
07.12.2006 12:00 6.7 C 82 % 1010.9 hPa 0.0 l/m 2.3 km/h (1 Bft) W-SW 0.95 h 1.1 UV-I 280 W/m 3.9 C 6.6 C 5.1 km/h (1 Bft)
07.12.2006 13:00 7.4 C 79 % 1010.4 hPa 0.0 l/m 4.1 km/h (1 Bft) SW 0.97 h 1.0 UV-I 231 W/m 4.0 C 7.0 C 8.2 km/h (2 Bft)
07.12.2006 14:00 8.0 C 77 % 1010.1 hPa 0.0 l/m 4.6 km/h (1 Bft) S-SO 0.55 h 0.7 UV-I 140 W/m 4.2 C 7.6 C 9.2 km/h (2 Bft)
07.12.2006 15:00 7.3 C 77 % 1010.0 hPa 0.0 l/m 6.3 km/h (2 Bft) S 0.00 h 0.5 UV-I 54 W/m 3.6 C 6.4 C 12.8 km/h (3 Bft)
07.12.2006 16:00 6.8 C 80 % 1010.0 hPa 0.0 l/m 4.9 km/h (1 Bft) S 0.02 h 0.0 UV-I 18 W/m 3.6 C 6.2 C 9.9 km/h (2 Bft)
07.12.2006 17:00 6.7 C 81 % 1010.1 hPa 0.0 l/m 1.7 km/h (1 Bft) SW 0.00 h 0.0 UV-I 0 W/m 3.7 C 6.6 C 4.5 km/h (1 Bft)
07.12.2006 18:00 6.7 C 82 % 1010.5 hPa 0.0 l/m 2.2 km/h (1 Bft) S-SO 0.00 h 0.0 UV-I 0 W/m 3.8 C 6.5 C 4.1 km/h (1 Bft)
07.12.2006 19:00 6.7 C 85 % 1010.3 hPa 0.4 l/m 3.9 km/h (1 Bft) S-SO 0.00 h 0.0 UV-I 0 W/m 4.4 C 6.4 C 7.2 km/h (2 Bft)
07.12.2006 20:00 6.8 C 86 % 1010.2 hPa 0.4 l/m 3.6 km/h (1 Bft) SO 0.00 h 0.0 UV-I 0 W/m 4.7 C 6.4 C 6.3 km/h (2 Bft)
07.12.2006 21:00 7.2 C 84 % 1008.9 hPa 0.0 l/m 6.9 km/h (2 Bft) S-SO 0.00 h 0.0 UV-I 0 W/m 4.8 C 6.1 C 12.4 km/h (3 Bft)
07.12.2006 22:00 7.2 C 85 % 1008.4 hPa 0.0 l/m 2.6 km/h (1 Bft) S-SO 0.00 h 0.0 UV-I 0 W/m 4.8 C 7.0 C 5.6 km/h (1 Bft)
07.12.2006 23:00 6.6 C 89 % 1007.8 hPa 0.0 l/m 0.5 km/h (0 Bft) W-NW 0.00 h 0.0 UV-I 0 W/m 4.9 C 6.6 C 2.0 km/h (1 Bft)
08.12.2006 00:00 5.1 C 97 % 1007.4 hPa 0.0 l/m 0.1 km/h (0 Bft) W-NW 0.00 h 0.0 UV-I 0 W/m 4.6 C 5.1 C 0.6 km/h (0 Bft)
08.12.2006 01:00 4.6 C 97 % 1006.6 hPa 0.0 l/m 0.2 km/h (0 Bft) W-NW 0.00 h 0.0 UV-I 0 W/m 4.2 C 4.6 C 0.6 km/h (0 Bft)
08.12.2006 02:00 4.6 C 99 % 1006.0 hPa 0.0 l/m 0.5 km/h (0 Bft) NW 0.00 h 0.0 UV-I 0 W/m 4.4 C 4.6 C 1.1 km/h (1 Bft)
08.12.2006 03:00 4.7 C 99 % 1005.2 hPa 0.0 l/m 0.2 km/h (0 Bft) N-NW 0.00 h 0.0 UV-I 0 W/m 4.6 C 4.7 C 1.0 km/h (0 Bft)
08.12.2006 04:00 4.8 C 98 % 1004.3 hPa 0.0 l/m 0.1 km/h (0 Bft) N-NW 0.00 h 0.0 UV-I 0 W/m 4.5 C 4.8 C 0.7 km/h (0 Bft)
08.12.2006 05:00 4.5 C 97 % 1003.7 hPa 0.0 l/m 0.2 km/h (0 Bft) O 0.00 h 0.0 UV-I 0 W/m 4.2 C 4.5 C 0.7 km/h (0 Bft)
08.12.2006 06:00 4.4 C 98 % 1002.7 hPa 0.0 l/m 0.0 km/h (0 Bft) N 0.00 h 0.0 UV-I 0 W/m 4.1 C 4.4 C 0.2 km/h (0 Bft)
08.12.2006 07:00 4.2 C 98 % 1001.9 hPa 0.0 l/m 0.2 km/h (0 Bft) O 0.00 h 0.0 UV-I 5 W/m 3.9 C 4.2 C 0.8 km/h (0 Bft)
08.12.2006 08:00 4.3 C 98 % 1000.8 hPa 0.0 l/m 0.1 km/h (0 Bft) O 0.58 h 0.0 UV-I 35 W/m 4.0 C 4.3 C 0.5 km/h (0 Bft)
08.12.2006 09:00 5.0 C 99 % 999.8 hPa 0.0 l/m 0.9 km/h (0 Bft) N 0.07 h 0.5 UV-I 61 W/m 4.9 C 5.0 C 2.0 km/h (1 Bft)
08.12.2006 10:00 7.1 C 91 % 999.0 hPa 0.0 l/m 0.7 km/h (0 Bft) O 0.27 h 0.7 UV-I 146 W/m 5.8 C 7.1 C 1.8 km/h (1 Bft)
08.12.2006 11:00 8.9 C 82 % 997.9 hPa 0.0 l/m 0.7 km/h (0 Bft) NW 0.67 h 0.9 UV-I 194 W/m 6.0 C 8.9 C 2.0 km/h (1 Bft)
08.12.2006 12:00 9.8 C 79 % 997.3 hPa 0.0 l/m 0.9 km/h (0 Bft) O-SO 0.32 h 0.8 UV-I 158 W/m 6.3 C 9.8 C 2.1 km/h (1 Bft)
08.12.2006 13:00 9.8 C 80 % 997.0 hPa 0.0 l/m 3.0 km/h (1 Bft) SO 0.00 h 0.5 UV-I 59 W/m 6.6 C 9.6 C 5.3 km/h (1 Bft)
08.12.2006 14:00 9.7 C 80 % 998.3 hPa 0.0 l/m 2.9 km/h (1 Bft) S-SO 0.00 h 0.0 UV-I 36 W/m 6.4 C 9.6 C 5.9 km/h (2 Bft)
08.12.2006 15:00 10.4 C 82 % 999.2 hPa 0.4 l/m 17.4 km/h (3 Bft) W 0.00 h 0.0 UV-I 10 W/m 7.5 C 9.8 C 26.3 km/h (4 Bft)
08.12.2006 16:00 7.4 C 88 % 1001.7 hPa 3.0 l/m 21.0 km/h (4 Bft) W-NW 0.00 h 0.0 UV-I 0 W/m 5.6 C 4.1 C 33.0 km/h (5 Bft)
08.12.2006 17:00 6.2 C 92 % 1003.1 hPa 1.8 l/m 10.2 km/h (2 Bft) W 0.00 h 0.0 UV-I 0 W/m 5.0 C 4.2 C 16.7 km/h (3 Bft)
08.12.2006 18:00 5.7 C 93 % 1004.0 hPa 0.8 l/m 2.5 km/h (1 Bft) S 0.00 h 0.0 UV-I 0 W/m 4.7 C 5.5 C 5.8 km/h (2 Bft)
08.12.2006 19:00 5.6 C 94 % 1004.8 hPa 0.8 l/m 2.5 km/h (1 Bft) S-SW 0.00 h 0.0 UV-I 0 W/m 4.8 C 5.5 C 6.0 km/h (2 Bft)
08.12.2006 20:00 5.4 C 94 % 1005.8 hPa 1.2 l/m 4.4 km/h (1 Bft) S 0.00 h 0.0 UV-I 0 W/m 4.6 C 4.8 C 9.2 km/h (2 Bft)
08.12.2006 21:00 5.2 C 94 % 1005.7 hPa 0.6 l/m 4.3 km/h (1 Bft) S 0.00 h 0.0 UV-I 0 W/m 4.3 C 4.7 C 9.3 km/h (2 Bft)
08.12.2006 22:00 4.6 C 93 % 1005.8 hPa 1.2 l/m 5.6 km/h (1 Bft) S 0.00 h 0.0 UV-I 0 W/m 3.6 C 3.5 C 11.5 km/h (2 Bft)
08.12.2006 23:00 4.1 C 93 % 1005.9 hPa 1.0 l/m 5.1 km/h (1 Bft) S-SO 0.00 h 0.0 UV-I 0 W/m 3.1 C 3.1 C 10.4 km/h (2 Bft)
09.12.2006 00:00 3.8 C 93 % 1006.0 hPa 0.4 l/m 3.2 km/h (1 Bft) S-SO 0.00 h 0.0 UV-I 0 W/m 2.8 C 3.4 C 7.0 km/h (2 Bft)
09.12.2006 01:00 3.7 C 94 % 1006.0 hPa 0.6 l/m 1.2 km/h (1 Bft) S-SO 0.00 h 0.0 UV-I 0 W/m 2.9 C 3.7 C 3.5 km/h (1 Bft)
09.12.2006 02:00 3.6 C 95 % 1005.9 hPa 1.0 l/m 2.1 km/h (1 Bft) S-SO 0.00 h 0.0 UV-I 0 W/m 2.9 C 3.5 C 4.6 km/h (1 Bft)
09.12.2006 03:00 3.3 C 95 % 1006.6 hPa 0.8 l/m 2.5 km/h (1 Bft) S 0.00 h 0.0 UV-I 0 W/m 2.6 C 3.2 C 5.8 km/h (2 Bft)
09.12.2006 04:00 3.0 C 95 % 1006.8 hPa 0.6 l/m 1.5 km/h (1 Bft) S-SO 0.00 h 0.0 UV-I 0 W/m 2.2 C 2.9 C 4.1 km/h (1 Bft)
09.12.2006 05:00 2.7 C 96 % 1007.3 hPa 0.4 l/m 2.1 km/h (1 Bft) S 0.00 h 0.0 UV-I 0 W/m 2.1 C 2.6 C 5.3 km/h (1 Bft)
09.12.2006 06:00 2.5 C 96 % 1008.0 hPa 0.4 l/m 2.3 km/h (1 Bft) S 0.00 h 0.0 UV-I 0 W/m 1.9 C 2.4 C 5.9 km/h (2 Bft)
09.12.2006 07:00 2.4 C 96 % 1008.7 hPa 0.0 l/m 2.4 km/h (1 Bft) S-SW 0.00 h 0.0 UV-I 0 W/m 1.8 C 2.3 C 5.2 km/h (1 Bft)
09.12.2006 08:00 2.5 C 96 % 1009.7 hPa 0.0 l/m 3.0 km/h (1 Bft) S-SO 0.00 h 0.0 UV-I 10 W/m 1.9 C 2.3 C 6.6 km/h (2 Bft)
09.12.2006 09:00 2.8 C 96 % 1010.5 hPa 0.2 l/m 2.3 km/h (1 Bft) S 0.00 h 0.0 UV-I 26 W/m 2.2 C 2.7 C 5.2 km/h (1 Bft)
09.12.2006 10:00 3.3 C 96 % 1011.2 hPa 0.0 l/m 3.2 km/h (1 Bft) S 0.00 h 0.0 UV-I 40 W/m 2.7 C 3.0 C 6.8 km/h (2 Bft)
09.12.2006 11:00 3.7 C 95 % 1011.8 hPa 0.0 l/m 2.9 km/h (1 Bft) S 0.00 h 0.0 UV-I 39 W/m 3.0 C 3.5 C 6.8 km/h (2 Bft)
09.12.2006 12:00 4.2 C 94 % 1012.4 hPa 0.0 l/m 2.9 km/h (1 Bft) S 0.00 h 0.0 UV-I 45 W/m 3.4 C 4.0 C 6.8 km/h (2 Bft)
09.12.2006 13:00 4.6 C 94 % 1012.6 hPa 0.4 l/m 2.4 km/h (1 Bft) S 0.00 h 0.0 UV-I 41 W/m 3.7 C 4.5 C 6.1 km/h (2 Bft)
09.12.2006 14:00 4.5 C 95 % 1013.1 hPa 0.8 l/m 2.7 km/h (1 Bft) S-SW 0.00 h 0.0 UV-I 24 W/m 3.8 C 4.4 C 6.6 km/h (2 Bft)
09.12.2006 15:00 4.5 C 96 % 1013.8 hPa 0.4 l/m 1.2 km/h (1 Bft) SW 0.00 h 0.0 UV-I 15 W/m 3.8 C 4.5 C 3.4 km/h (1 Bft)
09.12.2006 16:00 4.1 C 94 % 1014.7 hPa 0.2 l/m 2.9 km/h (1 Bft) S-SO 0.00 h 0.0 UV-I 7 W/m 3.3 C 4.0 C 6.2 km/h (2 Bft)
09.12.2006 17:00 4.0 C 94 % 1015.8 hPa 0.0 l/m 2.5 km/h (1 Bft) S-SO 0.00 h 0.0 UV-I 0 W/m 3.2 C 3.8 C 5.1 km/h (1 Bft)
09.12.2006 18:00 4.3 C 94 % 1016.8 hPa 0.0 l/m 4.4 km/h (1 Bft) W 0.00 h 0.0 UV-I 0 W/m 3.4 C 3.6 C 7.8 km/h (2 Bft)
09.12.2006 19:00 4.6 C 92 % 1018.1 hPa 0.0 l/m 3.4 km/h (1 Bft) W 0.00 h 0.0 UV-I 0 W/m 3.4 C 4.0 C 6.9 km/h (2 Bft)
09.12.2006 20:00 4.4 C 93 % 1019.0 hPa 0.0 l/m 2.4 km/h (1 Bft) S 0.00 h 0.0 UV-I 0 W/m 3.3 C 4.2 C 5.3 km/h (1 Bft)
09.12.2006 21:00 4.3 C 93 % 1019.8 hPa 0.0 l/m 2.0 km/h (1 Bft) S-SO 0.00 h 0.0 UV-I 0 W/m 3.2 C 4.2 C 4.2 km/h (1 Bft)
09.12.2006 22:00 4.2 C 93 % 1020.8 hPa 0.0 l/m 2.1 km/h (1 Bft) S-SO 0.00 h 0.0 UV-I 0 W/m 3.2 C 4.0 C 4.6 km/h (1 Bft)
09.12.2006 23:00 4.1 C 94 % 1021.6 hPa 0.0 l/m 1.1 km/h (1 Bft) SW 0.00 h 0.0 UV-I 0 W/m 3.2 C 4.1 C 3.1 km/h (1 Bft)
10.12.2006 00:00 4.3 C 92 % 1022.5 hPa 0.0 l/m 3.4 km/h (1 Bft) W 0.00 h 0.0 UV-I 0 W/m 3.1 C 3.8 C 6.0 km/h (2 Bft)
10.12.2006 01:00 4.3 C 90 % 1023.2 hPa 0.0 l/m 0.4 km/h (0 Bft) NW 0.00 h 0.0 UV-I 0 W/m 2.8 C 4.3 C 1.4 km/h (1 Bft)
10.12.2006 02:00 4.3 C 91 % 1024.2 hPa 0.0 l/m 1.2 km/h (1 Bft) W 0.00 h 0.0 UV-I 0 W/m 3.0 C 4.2 C 3.1 km/h (1 Bft)
10.12.2006 03:00 4.2 C 92 % 1025.0 hPa 0.0 l/m 1.2 km/h (1 Bft) W-SW 0.00 h 0.0 UV-I 0 W/m 3.0 C 4.1 C 2.9 km/h (1 Bft)
10.12.2006 04:00 3.9 C 93 % 1025.6 hPa 0.0 l/m 0.5 km/h (0 Bft) S 0.00 h 0.0 UV-I 0 W/m 2.9 C 3.9 C 1.7 km/h (1 Bft)
10.12.2006 05:00 3.7 C 93 % 1026.2 hPa 0.0 l/m 0.9 km/h (0 Bft) S 0.00 h 0.0 UV-I 0 W/m 2.6 C 3.7 C 2.6 km/h (1 Bft)
10.12.2006 06:00 3.7 C 93 % 1027.0 hPa 0.0 l/m 1.2 km/h (1 Bft) SW 0.00 h 0.0 UV-I 0 W/m 2.7 C 3.7 C 3.2 km/h (1 Bft)
10.12.2006 07:00 3.8 C 91 % 1027.9 hPa 0.0 l/m 1.4 km/h (1 Bft) W-NW 0.00 h 0.0 UV-I 0 W/m 2.5 C 3.6 C 2.7 km/h (1 Bft)
10.12.2006 08:00 3.8 C 90 % 1028.8 hPa 0.0 l/m 0.0 km/h (0 Bft) N 0.00 h 0.0 UV-I 17 W/m 2.4 C 3.8 C 0.6 km/h (0 Bft)
10.12.2006 09:00 4.2 C 90 % 1029.7 hPa 0.0 l/m 0.3 km/h (0 Bft) W-SW 0.00 h 0.0 UV-I 57 W/m 2.8 C 4.2 C 1.2 km/h (1 Bft)
10.12.2006 10:00 4.9 C 89 % 1030.6 hPa 0.0 l/m 0.2 km/h (0 Bft) S 0.00 h 0.5 UV-I 89 W/m 3.2 C 4.9 C 1.1 km/h (1 Bft)
10.12.2006 11:00 5.5 C 84 % 1030.8 hPa 0.0 l/m 1.3 km/h (1 Bft) S-SO 0.58 h 0.8 UV-I 237 W/m 3.1 C 5.5 C 3.3 km/h (1 Bft)
10.12.2006 12:00 6.3 C 78 % 1030.7 hPa 0.0 l/m 1.8 km/h (1 Bft) W-NW 0.93 h 0.9 UV-I 291 W/m 2.7 C 6.2 C 4.1 km/h (1 Bft)
10.12.2006 13:00 6.7 C 75 % 1030.8 hPa 0.0 l/m 3.2 km/h (1 Bft) N 0.53 h 0.7 UV-I 210 W/m 2.6 C 6.5 C 5.8 km/h (2 Bft)
10.12.2006 14:00 6.8 C 75 % 1031.2 hPa 0.0 l/m 2.0 km/h (1 Bft) N-NW 0.75 h 0.5 UV-I 147 W/m 2.6 C 6.7 C 4.0 km/h (1 Bft)
10.12.2006 15:00 6.4 C 77 % 1031.7 hPa 0.0 l/m 4.0 km/h (1 Bft) W-NW 0.22 h 0.5 UV-I 64 W/m 2.8 C 6.1 C 6.5 km/h (2 Bft)
10.12.2006 16:00 5.4 C 83 % 1032.2 hPa 0.0 l/m 0.8 km/h (0 Bft) W 0.07 h 0.0 UV-I 14 W/m 2.7 C 5.4 C 2.1 km/h (1 Bft)
10.12.2006 17:00 4.2 C 88 % 1032.8 hPa 0.0 l/m 2.2 km/h (1 Bft) O-SO 0.00 h 0.0 UV-I 0 W/m 2.4 C 4.0 C 3.6 km/h (1 Bft)
10.12.2006 18:00 2.5 C 92 % 1033.1 hPa 0.0 l/m 5.0 km/h (1 Bft) O-SO 0.00 h 0.0 UV-I 0 W/m 1.4 C 1.5 C 6.6 km/h (2 Bft)
10.12.2006 19:00 1.6 C 94 % 1033.4 hPa 0.0 l/m 3.1 km/h (1 Bft) O-SO 0.00 h 0.0 UV-I 0 W/m 0.7 C 1.3 C 4.6 km/h (1 Bft)
10.12.2006 20:00 0.9 C 95 % 1033.8 hPa 0.0 l/m 1.8 km/h (1 Bft) SO 0.00 h 0.0 UV-I 0 W/m 0.2 C 0.7 C 2.8 km/h (1 Bft)
10.12.2006 21:00 0.6 C 97 % 1033.9 hPa 0.0 l/m 0.9 km/h (0 Bft) SO 0.00 h 0.0 UV-I 0 W/m 0.1 C 0.5 C 1.7 km/h (1 Bft)
10.12.2006 22:00 0.8 C 98 % 1034.0 hPa 0.0 l/m 1.3 km/h (1 Bft) O-SO 0.00 h 0.0 UV-I 0 W/m 0.6 C 0.8 C 3.0 km/h (1 Bft)
10.12.2006 23:00 0.7 C 99 % 1034.3 hPa 0.0 l/m 0.4 km/h (0 Bft) SO 0.00 h 0.0 UV-I 0 W/m 0.6 C 0.7 C 1.1 km/h (1 Bft)
Min-Datum _ 10.12.06 04.12.06 08.12.06 - 04.12.06 - - - - 10.12.06 10.12.06 04.12.06
_ Min-Zeit 20:54 00:34 13:45 - 02:37 - - - - 20:54 21:20 06:58
Minimum _ 0.3 C 62 % 996.7 hPa - 0.0 km/h (0 Bft) - - - - -0.4 C -1.2 C 0.0 km/h (0 Bft)
Max-Datum _ 05.12.06 06.12.06 10.12.06 04.12.06 08.12.06 - 04.12.06 07.12.06 07.12.06 05.12.06 05.12.06 08.12.06
_ Max-Zeit 15:02 05:25 23:15 20:02 16:26 - 10:01 12:17 11:33 13:24 15:02 16:28
Maximum _ 15.0 C 100 % 1034.3 hPa 4.4 l/m 35.4 km/h
W-NW (5 Bft)
- 0.02 h 1.2 UV-I 415 W/m 12.0 C 15.0 C 57.7 km/h
W (7 Bft)
Durchschnitt _ 6.9 C 91 % 1013.3 hPa #46.2 l/m 3.5 km/h (1 Bft) S-SO #10:43 h 0.7 UV-I 74 W/m 5.4 C 6.7 C 6.6 km/h (2 Bft)
© Kaiko 2006